createdAt,value
2019-05-23T00:03:04.944Z,99.90
2019-05-23T00:08:26.423Z,99.90
2019-05-23T00:13:45.403Z,99.90
2019-05-23T00:18:47.087Z,99.90
2019-05-23T00:23:46.792Z,99.90
2019-05-23T00:28:46.939Z,99.90
2019-05-23T00:33:48.611Z,99.90
2019-05-23T00:38:49.916Z,99.90
2019-05-23T00:43:50.625Z,99.90
2019-05-23T00:48:50.994Z,99.90
2019-05-23T00:53:52.038Z,99.90
2019-05-23T00:58:51.683Z,99.90
2019-05-23T01:03:52.325Z,99.90
2019-05-23T01:08:53.023Z,99.90
2019-05-23T01:13:53.058Z,99.90
2019-05-23T01:18:53.554Z,99.90
2019-05-23T01:24:00.640Z,99.90
2019-05-23T01:29:01.950Z,99.90
2019-05-23T01:34:04.294Z,99.90
2019-05-23T01:39:06.581Z,99.90
2019-05-23T01:44:08.283Z,99.90
2019-05-23T01:49:09.007Z,99.90
2019-05-23T01:54:09.225Z,99.90
2019-05-23T01:59:09.774Z,99.90
2019-05-23T02:04:10.578Z,99.90
2019-05-23T02:09:11.774Z,99.90
2019-05-23T02:14:12.013Z,99.90
2019-05-23T02:19:13.996Z,99.90
2019-05-23T02:24:15.021Z,99.90
2019-05-23T02:29:16.271Z,99.90
2019-05-23T02:34:16.664Z,99.90
2019-05-23T02:39:33.647Z,99.90
2019-05-23T02:44:34.858Z,99.90
2019-05-23T02:49:37.816Z,99.90
2019-05-23T02:54:37.665Z,99.90
2019-05-23T02:59:48.925Z,99.90
2019-05-23T03:04:50.019Z,99.90
2019-05-23T03:09:51.785Z,99.90
2019-05-23T03:14:51.993Z,99.90
2019-05-23T03:19:56.365Z,99.90
2019-05-23T03:24:59.584Z,99.90
2019-05-23T03:30:00.555Z,99.90
2019-05-23T03:35:07.402Z,99.90
2019-05-23T03:40:08.419Z,99.90
2019-05-23T03:45:10.849Z,99.90
2019-05-23T03:50:12.358Z,99.90
2019-05-23T03:55:13.123Z,99.90
2019-05-23T04:00:17.247Z,99.90
2019-05-23T04:05:17.377Z,99.90
2019-05-23T04:10:18.958Z,99.90
2019-05-23T04:15:19.029Z,99.90
2019-05-23T04:20:18.946Z,99.90
2019-05-23T04:25:19.997Z,99.90
2019-05-23T04:30:19.718Z,99.90
2019-05-23T04:35:19.444Z,99.90
2019-05-23T04:40:19.062Z,99.90
2019-05-23T04:45:19.485Z,99.90
2019-05-23T04:50:21.296Z,99.90
2019-05-23T04:55:22.354Z,99.90
2019-05-23T05:00:24.847Z,99.90
2019-05-23T05:05:24.463Z,99.90
2019-05-23T05:10:26.360Z,99.90
2019-05-23T05:15:26.042Z,99.90
2019-05-23T05:20:25.725Z,99.90
2019-05-23T05:25:25.846Z,99.90
2019-05-23T05:30:26.153Z,99.90
2019-05-23T05:35:27.139Z,99.90
2019-05-23T05:40:26.770Z,99.90
2019-05-23T05:45:26.382Z,99.90
2019-05-23T05:50:25.936Z,99.90
2019-05-23T05:55:25.947Z,99.90
2019-05-23T06:00:39.568Z,99.90
2019-05-23T06:05:57.324Z,99.90
2019-05-23T06:10:57.554Z,99.90
2019-05-23T06:15:57.242Z,99.90
2019-05-23T06:20:56.988Z,99.90
2019-05-23T06:25:56.610Z,99.90
2019-05-23T06:30:57.189Z,99.90
2019-05-23T06:35:58.201Z,99.90
2019-05-23T06:40:58.490Z,99.90
2019-05-23T06:45:58.338Z,99.90
2019-05-23T06:50:57.942Z,99.90
2019-05-23T06:55:57.570Z,99.90
2019-05-23T07:00:57.197Z,99.90
2019-05-23T07:05:57.095Z,99.90
2019-05-23T07:10:56.903Z,99.90
2019-05-23T07:15:56.531Z,99.90
2019-05-23T07:20:56.264Z,99.90
2019-05-23T07:25:58.148Z,99.90
2019-05-23T07:30:58.186Z,99.90
2019-05-23T07:35:57.741Z,99.90
2019-05-23T07:40:58.234Z,99.90
2019-05-23T07:45:58.827Z,99.90
2019-05-23T07:50:58.457Z,99.90
2019-05-23T07:55:58.662Z,99.90
2019-05-23T08:01:00.010Z,99.90
2019-05-23T08:05:59.562Z,99.90
2019-05-23T08:10:59.128Z,99.90
2019-05-23T08:15:59.573Z,99.90
2019-05-23T08:20:59.195Z,99.90
2019-05-23T08:25:59.135Z,99.90
2019-05-23T08:30:58.762Z,99.90
2019-05-23T08:35:58.875Z,99.90
2019-05-23T08:40:58.759Z,99.90
2019-05-23T08:45:58.589Z,99.90
2019-05-23T08:50:58.470Z,99.90
2019-05-23T08:55:58.359Z,99.90
2019-05-23T09:00:58.225Z,99.90
2019-05-23T09:05:59.758Z,99.90
2019-05-23T09:11:00.014Z,99.90
2019-05-23T09:16:00.092Z,99.90
2019-05-23T09:21:00.122Z,99.90
2019-05-23T09:26:00.487Z,99.90
2019-05-23T09:31:00.697Z,99.90
2019-05-23T09:36:01.072Z,99.90
2019-05-23T09:41:00.907Z,99.90
2019-05-23T09:46:00.458Z,99.90
2019-05-23T09:51:01.449Z,99.90
2019-05-23T09:56:01.125Z,99.90
2019-05-23T10:01:00.684Z,98.70
2019-05-23T10:06:00.228Z,99.00
2019-05-23T10:10:59.956Z,96.60
2019-05-23T10:16:07.524Z,93.80
2019-05-23T10:21:08.607Z,95.00
2019-05-23T10:26:09.009Z,94.80
2019-05-23T10:31:10.238Z,92.30
2019-05-23T10:36:09.948Z,91.60
2019-05-23T10:41:09.667Z,95.00
2019-05-23T10:46:09.270Z,94.70
2019-05-23T10:51:09.298Z,92.70
2019-05-23T10:56:09.334Z,92.30
2019-05-23T11:01:09.326Z,91.80
2019-05-23T11:06:15.999Z,94.00
2019-05-23T11:11:14.649Z,92.00
2019-05-23T11:16:15.250Z,92.30
2019-05-23T11:21:15.091Z,92.50
2019-05-23T11:26:14.648Z,91.80
2019-05-23T11:31:15.143Z,93.90
2019-05-23T11:36:31.838Z,92.60
2019-05-23T11:41:18.198Z,91.20
2019-05-23T11:46:27.353Z,91.60
2019-05-23T11:51:27.190Z,92.20
2019-05-23T11:56:26.964Z,90.80
2019-05-23T12:01:34.401Z,91.50
2019-05-23T12:06:54.291Z,91.10
2019-05-23T12:11:45.194Z,91.00
2019-05-23T12:16:49.164Z,89.90
2019-05-23T12:21:49.164Z,90.90
2019-05-23T12:26:48.883Z,90.60
2019-05-23T12:31:49.798Z,90.00
2019-05-23T12:36:49.957Z,89.90
2019-05-23T12:41:49.520Z,90.20
2019-05-23T12:46:49.269Z,90.60
2019-05-23T12:51:49.304Z,84.80
2019-05-23T12:56:49.361Z,86.00
2019-05-23T13:01:51.288Z,88.70
2019-05-23T13:06:51.590Z,83.10
2019-05-23T13:11:51.324Z,85.60
2019-05-23T13:16:51.074Z,91.10
2019-05-23T13:21:50.775Z,85.50
2019-05-23T13:26:50.475Z,85.10
2019-05-23T13:31:50.035Z,82.30
2019-05-23T13:36:50.579Z,73.50
2019-05-23T13:41:50.261Z,72.50
2019-05-23T13:46:50.098Z,71.90
2019-05-23T13:51:50.153Z,72.50
2019-05-23T13:56:50.205Z,71.60
2019-05-23T14:01:50.038Z,73.10
2019-05-23T14:06:49.664Z,69.80
2019-05-23T14:12:18.751Z,70.00
2019-05-23T14:17:08.492Z,73.40
2019-05-23T14:22:08.780Z,76.00
2019-05-23T14:27:18.088Z,70.30
2019-05-23T14:32:26.199Z,69.70
2019-05-23T14:37:31.998Z,70.60
2019-05-23T14:43:06.294Z,67.70
2019-05-23T14:48:12.535Z,68.60
2019-05-23T14:53:15.089Z,67.50
2019-05-23T14:58:15.663Z,66.30
2019-05-23T15:03:17.535Z,68.60
2019-05-23T15:08:17.385Z,68.80
2019-05-23T15:13:16.980Z,66.60
2019-05-23T15:18:16.761Z,67.00
2019-05-23T15:23:16.306Z,64.00
2019-05-23T15:28:15.861Z,64.80
2019-05-23T15:33:15.411Z,63.70
2019-05-23T15:38:15.253Z,64.30
2019-05-23T15:43:14.990Z,65.80
2019-05-23T15:48:14.814Z,66.00
2019-05-23T15:53:23.702Z,64.60
2019-05-23T15:58:46.738Z,68.80
2019-05-23T16:03:53.136Z,67.90
2019-05-23T16:08:52.852Z,69.00
2019-05-23T16:13:52.410Z,66.00
2019-05-23T16:18:52.524Z,65.50
2019-05-23T16:23:53.221Z,65.80
2019-05-23T16:28:52.897Z,65.70
2019-05-23T16:33:52.574Z,66.60
2019-05-23T16:38:53.127Z,67.40
2019-05-23T16:43:52.835Z,67.40
2019-05-23T16:48:52.772Z,67.20
2019-05-23T16:53:52.757Z,65.90
2019-05-23T16:59:10.716Z,65.30
2019-05-23T17:04:35.529Z,64.80
2019-05-23T17:10:07.527Z,67.60
2019-05-23T17:15:15.327Z,66.60
2019-05-23T17:20:40.813Z,65.80
2019-05-23T17:25:59.667Z,65.60
2019-05-23T17:31:05.123Z,64.50
2019-05-23T17:36:06.360Z,65.10
2019-05-23T17:41:06.715Z,67.80
2019-05-23T17:46:06.424Z,66.50
2019-05-23T17:51:06.152Z,68.90
2019-05-23T17:56:05.783Z,69.30
2019-05-23T18:01:06.226Z,71.00
2019-05-23T18:06:06.031Z,71.60
2019-05-23T18:11:05.971Z,73.70
2019-05-23T18:16:06.551Z,74.10
2019-05-23T18:21:07.368Z,74.30
2019-05-23T18:26:07.781Z,75.80
2019-05-23T18:31:18.100Z,74.30
2019-05-23T18:36:19.679Z,76.30
2019-05-23T18:41:20.811Z,77.60
2019-05-23T18:46:25.221Z,77.20
2019-05-23T18:51:25.111Z,75.70
2019-05-23T18:56:25.060Z,77.30
2019-05-23T19:01:26.615Z,78.40
2019-05-23T19:06:26.419Z,76.70
2019-05-23T19:11:27.429Z,76.10
2019-05-23T19:16:28.463Z,76.80
2019-05-23T19:21:29.098Z,78.70
2019-05-23T19:26:29.365Z,79.70
2019-05-23T19:31:29.093Z,78.80
2019-05-23T19:36:28.958Z,82.10
2019-05-23T19:41:37.549Z,81.80
2019-05-23T19:46:30.736Z,82.90
2019-05-23T19:51:30.625Z,85.00
2019-05-23T19:56:30.419Z,87.30
2019-05-23T20:01:34.723Z,87.00
2019-05-23T20:06:34.620Z,89.30
2019-05-23T20:11:34.849Z,89.60
2019-05-23T20:16:34.406Z,90.20
2019-05-23T20:21:34.231Z,90.30
2019-05-23T20:26:33.846Z,90.20
2019-05-23T20:31:33.518Z,91.20
2019-05-23T20:36:33.594Z,91.60
2019-05-23T20:41:33.269Z,91.60
2019-05-23T20:46:33.281Z,92.20
2019-05-23T20:51:33.189Z,92.70
2019-05-23T20:56:32.862Z,93.90
2019-05-23T21:01:35.470Z,94.50
2019-05-23T21:06:35.166Z,94.80
2019-05-23T21:11:34.752Z,95.50
2019-05-23T21:16:34.444Z,96.20
2019-05-23T21:21:34.007Z,96.80
2019-05-23T21:26:33.643Z,97.90
2019-05-23T21:31:33.186Z,98.80
2019-05-23T21:36:32.935Z,99.90
2019-05-23T21:41:32.493Z,99.90
2019-05-23T21:46:32.507Z,99.90
2019-05-23T21:51:32.062Z,99.90
2019-05-23T21:56:31.790Z,99.90
2019-05-23T22:01:47.351Z,99.90
2019-05-23T22:07:06.498Z,99.90
2019-05-23T22:12:08.902Z,99.90
2019-05-23T22:17:08.511Z,99.90
2019-05-23T22:22:08.088Z,99.90
2019-05-23T22:27:09.299Z,99.90
2019-05-23T22:32:10.129Z,99.90
2019-05-23T22:37:19.270Z,99.90
2019-05-23T22:42:20.273Z,99.90
2019-05-23T22:47:20.011Z,99.90
2019-05-23T22:52:19.581Z,99.90
2019-05-23T22:57:19.283Z,99.90
2019-05-23T23:02:19.258Z,99.90
2019-05-23T23:07:18.982Z,99.90
2019-05-23T23:12:18.812Z,99.90
2019-05-23T23:17:19.298Z,99.90
2019-05-23T23:22:18.874Z,99.90
2019-05-23T23:27:18.430Z,99.90
2019-05-23T23:32:18.098Z,99.90
2019-05-23T23:37:17.721Z,99.90
2019-05-23T23:42:17.436Z,99.90
2019-05-23T23:47:34.851Z,99.90
2019-05-23T23:52:52.713Z,99.90
2019-05-23T23:58:00.309Z,99.90
